sensor_id;sensor_type;location;lat;lon;timestamp;pressure;altitude;pressure_sealevel;temperature;humidity
50790;BME280;37287;47.554;7.844;2023-02-04T00:00:00;99421.22;;;5.46;100.00
50790;BME280;37287;47.554;7.844;2023-02-04T00:02:28;99422.91;;;5.42;100.00
50790;BME280;37287;47.554;7.844;2023-02-04T00:04:54;99434.75;;;5.41;100.00
50790;BME280;37287;47.554;7.844;2023-02-04T00:07:21;99426.19;;;5.39;100.00
50790;BME280;37287;47.554;7.844;2023-02-04T00:09:52;99428.38;;;5.37;100.00
50790;BME280;37287;47.554;7.844;2023-02-04T00:12:19;99426.78;;;5.36;100.00
50790;BME280;37287;47.554;7.844;2023-02-04T00:14:45;99431.97;;;5.32;100.00
50790;BME280;37287;47.554;7.844;2023-02-04T00:17:14;99425.31;;;5.29;100.00
50790;BME280;37287;47.554;7.844;2023-02-04T00:19:40;99434.75;;;5.27;100.00
50790;BME280;37287;47.554;7.844;2023-02-04T00:22:07;99430.00;;;5.24;100.00
50790;BME280;37287;47.554;7.844;2023-02-04T00:24:35;99429.22;;;5.23;100.00
50790;BME280;37287;47.554;7.844;2023-02-04T00:27:03;99419.56;;;5.22;100.00
50790;BME280;37287;47.554;7.844;2023-02-04T00:29:30;99428.72;;;5.21;100.00
50790;BME280;37287;47.554;7.844;2023-02-04T00:32:03;99431.69;;;5.20;100.00
50790;BME280;37287;47.554;7.844;2023-02-04T00:34:30;99450.78;;;5.18;100.00
50790;BME280;37287;47.554;7.844;2023-02-04T00:36:57;99456.47;;;5.16;100.00
50790;BME280;37287;47.554;7.844;2023-02-04T00:39:23;99451.09;;;5.16;100.00
50790;BME280;37287;47.554;7.844;2023-02-04T00:41:50;99435.00;;;5.16;100.00
50790;BME280;37287;47.554;7.844;2023-02-04T00:44:16;99425.34;;;5.15;100.00
50790;BME280;37287;47.554;7.844;2023-02-04T00:46:46;99432.59;;;5.15;100.00
50790;BME280;37287;47.554;7.844;2023-02-04T00:49:15;99439.38;;;5.12;100.00
50790;BME280;37287;47.554;7.844;2023-02-04T00:51:41;99449.31;;;5.12;100.00
50790;BME280;37287;47.554;7.844;2023-02-04T00:54:13;99443.13;;;5.11;100.00
50790;BME280;37287;47.554;7.844;2023-02-04T00:56:42;99428.94;;;5.11;100.00
50790;BME280;37287;47.554;7.844;2023-02-04T00:59:11;99430.81;;;5.10;100.00
50790;BME280;37287;47.554;7.844;2023-02-04T01:01:44;99434.59;;;5.09;100.00
50790;BME280;37287;47.554;7.844;2023-02-04T01:04:11;99439.16;;;5.09;100.00
50790;BME280;37287;47.554;7.844;2023-02-04T01:06:37;99442.97;;;5.08;100.00
50790;BME280;37287;47.554;7.844;2023-02-04T01:09:04;99441.38;;;5.07;100.00
50790;BME280;37287;47.554;7.844;2023-02-04T01:11:31;99431.41;;;5.07;100.00
50790;BME280;37287;47.554;7.844;2023-02-04T01:13:57;99447.53;;;5.07;100.00
50790;BME280;37287;47.554;7.844;2023-02-04T01:16:24;99452.41;;;5.05;100.00
50790;BME280;37287;47.554;7.844;2023-02-04T01:18:51;99452.09;;;5.07;100.00
50790;BME280;37287;47.554;7.844;2023-02-04T01:21:24;99454.78;;;5.07;100.00
50790;BME280;37287;47.554;7.844;2023-02-04T01:23:51;99460.94;;;5.07;100.00
50790;BME280;37287;47.554;7.844;2023-02-04T01:26:18;99442.44;;;5.06;100.00
50790;BME280;37287;47.554;7.844;2023-02-04T01:28:45;99445.94;;;5.06;100.00
50790;BME280;37287;47.554;7.844;2023-02-04T01:31:14;99443.53;;;5.05;100.00
50790;BME280;37287;47.554;7.844;2023-02-04T01:33:40;99444.66;;;5.04;100.00
50790;BME280;37287;47.554;7.844;2023-02-04T01:36:07;99440.84;;;5.05;100.00
50790;BME280;37287;47.554;7.844;2023-02-04T01:38:34;99447.34;;;5.04;100.00
50790;BME280;37287;47.554;7.844;2023-02-04T01:41:02;99441.97;;;5.04;100.00
50790;BME280;37287;47.554;7.844;2023-02-04T01:43:32;99449.22;;;5.03;100.00
50790;BME280;37287;47.554;7.844;2023-02-04T01:46:05;99444.66;;;5.04;100.00
50790;BME280;37287;47.554;7.844;2023-02-04T01:48:32;99443.84;;;5.03;100.00
50790;BME280;37287;47.554;7.844;2023-02-04T01:51:06;99445.75;;;5.03;100.00
50790;BME280;37287;47.554;7.844;2023-02-04T01:53:34;99451.09;;;5.03;100.00
50790;BME280;37287;47.554;7.844;2023-02-04T01:56:14;99447.34;;;5.04;100.00
50790;BME280;37287;47.554;7.844;2023-02-04T01:58:41;99437.38;;;5.04;100.00
50790;BME280;37287;47.554;7.844;2023-02-04T02:09:01;99421.88;;;5.01;100.00
50790;BME280;37287;47.554;7.844;2023-02-04T02:11:28;99413.53;;;5.03;100.00
50790;BME280;37287;47.554;7.844;2023-02-04T02:13:55;99408.16;;;5.03;100.00
50790;BME280;37287;47.554;7.844;2023-02-04T02:16:21;99406.56;;;5.02;100.00
50790;BME280;37287;47.554;7.844;2023-02-04T02:18:48;99416.50;;;5.01;100.00
50790;BME280;37287;47.554;7.844;2023-02-04T02:21:18;99426.47;;;5.01;100.00
50790;BME280;37287;47.554;7.844;2023-02-04T02:23:50;99415.72;;;5.01;100.00
50790;BME280;37287;47.554;7.844;2023-02-04T02:26:19;99420.28;;;5.00;100.00
50790;BME280;37287;47.554;7.844;2023-02-04T02:28:47;99404.19;;;5.00;100.00
50790;BME280;37287;47.554;7.844;2023-02-04T02:31:20;99399.63;;;5.01;100.00
50790;BME280;37287;47.554;7.844;2023-02-04T02:33:48;99403.41;;;4.99;100.00
50790;BME280;37287;47.554;7.844;2023-02-04T02:36:14;99404.47;;;4.98;100.00
50790;BME280;37287;47.554;7.844;2023-02-04T02:38:45;99402.59;;;4.99;100.00
50790;BME280;37287;47.554;7.844;2023-02-04T02:41:13;99402.59;;;4.99;100.00
50790;BME280;37287;47.554;7.844;2023-02-04T02:43:39;99400.72;;;4.99;100.00
50790;BME280;37287;47.554;7.844;2023-02-04T02:46:08;99387.28;;;4.99;100.00
50790;BME280;37287;47.554;7.844;2023-02-04T02:48:35;99380.53;;;5.02;100.00
50790;BME280;37287;47.554;7.844;2023-02-04T02:51:02;99375.16;;;5.02;100.00
50790;BME280;37287;47.554;7.844;2023-02-04T02:53:33;99378.16;;;5.01;100.00
50790;BME280;37287;47.554;7.844;2023-02-04T02:56:00;99368.50;;;4.99;100.00
50790;BME280;37287;47.554;7.844;2023-02-04T02:58:32;99374.97;;;4.98;100.00
50790;BME280;37287;47.554;7.844;2023-02-04T03:01:02;99383.78;;;4.99;100.00
50790;BME280;37287;47.554;7.844;2023-02-04T03:03:32;99380.31;;;4.98;100.00
50790;BME280;37287;47.554;7.844;2023-02-04T03:06:04;99377.16;;;4.96;100.00
50790;BME280;37287;47.554;7.844;2023-02-04T03:08:34;99377.94;;;4.97;100.00
50790;BME280;37287;47.554;7.844;2023-02-04T03:11:03;99377.16;;;4.96;100.00
50790;BME280;37287;47.554;7.844;2023-02-04T03:13:30;99380.16;;;4.95;100.00
50790;BME280;37287;47.554;7.844;2023-02-04T03:15:58;99381.72;;;4.96;100.00
50790;BME280;37287;47.554;7.844;2023-02-04T03:18:25;99387.91;;;4.96;100.00
50790;BME280;37287;47.554;7.844;2023-02-04T03:20:54;99379.84;;;4.96;100.00
50790;BME280;37287;47.554;7.844;2023-02-04T03:23:24;99387.91;;;4.96;100.00
50790;BME280;37287;47.554;7.844;2023-02-04T03:25:53;99383.31;;;4.97;100.00
50790;BME280;37287;47.554;7.844;2023-02-04T03:28:19;99389.47;;;4.97;100.00
50790;BME280;37287;47.554;7.844;2023-02-04T03:30:47;99402.88;;;4.97;100.00
50790;BME280;37287;47.554;7.844;2023-02-04T03:33:22;99415.53;;;4.97;100.00
50790;BME280;37287;47.554;7.844;2023-02-04T03:35:49;99409.38;;;4.96;100.00
50790;BME280;37287;47.554;7.844;2023-02-04T03:38:17;99412.53;;;4.98;100.00
50790;BME280;37287;47.554;7.844;2023-02-04T03:40:45;99416.59;;;4.96;100.00
50790;BME280;37287;47.554;7.844;2023-02-04T03:43:13;99421.97;;;4.96;100.00
50790;BME280;37287;47.554;7.844;2023-02-04T03:45:49;99430.34;;;4.94;100.00
50790;BME280;37287;47.554;7.844;2023-02-04T03:48:15;99431.41;;;4.93;100.00
50790;BME280;37287;47.554;7.844;2023-02-04T03:50:42;99442.16;;;4.93;100.00
50790;BME280;37287;47.554;7.844;2023-02-04T03:53:10;99438.38;;;4.94;100.00
50790;BME280;37287;47.554;7.844;2023-02-04T03:55:37;99443.28;;;4.92;100.00
50790;BME280;37287;47.554;7.844;2023-02-04T03:58:04;99443.56;;;4.91;100.00
50790;BME280;37287;47.554;7.844;2023-02-04T04:00:32;99443.88;;;4.89;100.00
50790;BME280;37287;47.554;7.844;2023-02-04T04:02:59;99446.81;;;4.88;100.00
50790;BME280;37287;47.554;7.844;2023-02-04T04:05:26;99446.34;;;4.86;100.00
50790;BME280;37287;47.554;7.844;2023-02-04T04:07:57;99452.00;;;4.84;100.00
50790;BME280;37287;47.554;7.844;2023-02-04T04:10:24;99443.19;;;4.84;100.00
50790;BME280;37287;47.554;7.844;2023-02-04T04:12:51;99440.75;;;4.82;100.00
50790;BME280;37287;47.554;7.844;2023-02-04T04:15:19;99431.63;;;4.83;100.00
50790;BME280;37287;47.554;7.844;2023-02-04T04:17:46;99425.19;;;4.84;100.00
50790;BME280;37287;47.554;7.844;2023-02-04T04:20:14;99425.66;;;4.86;100.00
50790;BME280;37287;47.554;7.844;2023-02-04T04:22:55;99420.81;;;4.88;100.00
50790;BME280;37287;47.554;7.844;2023-02-04T04:25:21;99423.50;;;4.88;100.00
50790;BME280;37287;47.554;7.844;2023-02-04T04:27:48;99425.09;;;4.89;100.00
50790;BME280;37287;47.554;7.844;2023-02-04T04:30:19;99420.00;;;4.88;100.00
50790;BME280;37287;47.554;7.844;2023-02-04T04:32:45;99428.34;;;4.86;100.00
50790;BME280;37287;47.554;7.844;2023-02-04T04:35:12;99425.97;;;4.85;100.00
50790;BME280;37287;47.554;7.844;2023-02-04T04:37:38;99428.94;;;4.83;100.00
50790;BME280;37287;47.554;7.844;2023-02-04T04:40:05;99433.00;;;4.80;100.00
50790;BME280;37287;47.554;7.844;2023-02-04T04:42:32;99435.69;;;4.80;100.00
50790;BME280;37287;47.554;7.844;2023-02-04T04:44:58;99437.13;;;4.78;100.00
50790;BME280;37287;47.554;7.844;2023-02-04T04:47:25;99430.44;;;4.75;100.00
50790;BME280;37287;47.554;7.844;2023-02-04T04:49:51;99426.47;;;4.73;100.00
50790;BME280;37287;47.554;7.844;2023-02-04T04:52:20;99421.41;;;4.71;100.00
50790;BME280;37287;47.554;7.844;2023-02-04T04:54:47;99420.09;;;4.69;100.00
50790;BME280;37287;47.554;7.844;2023-02-04T04:57:13;99418.50;;;4.68;100.00
50790;BME280;37287;47.554;7.844;2023-02-04T04:59:42;99419.63;;;4.67;100.00
50790;BME280;37287;47.554;7.844;2023-02-04T05:02:09;99418.31;;;4.64;100.00
50790;BME280;37287;47.554;7.844;2023-02-04T05:04:35;99416.72;;;4.63;100.00
50790;BME280;37287;47.554;7.844;2023-02-04T05:07:02;99413.25;;;4.62;100.00
50790;BME280;37287;47.554;7.844;2023-02-04T05:09:29;99423.47;;;4.60;100.00
50790;BME280;37287;47.554;7.844;2023-02-04T05:11:56;99416.50;;;4.59;100.00
50790;BME280;37287;47.554;7.844;2023-02-04T05:14:24;99426.47;;;4.59;100.00
50790;BME280;37287;47.554;7.844;2023-02-04T05:16:52;99432.13;;;4.57;100.00
50790;BME280;37287;47.554;7.844;2023-02-04T05:19:21;99427.84;;;4.56;100.00
50790;BME280;37287;47.554;7.844;2023-02-04T05:21:49;99424.69;;;4.54;100.00
50790;BME280;37287;47.554;7.844;2023-02-04T05:24:15;99417.72;;;4.53;100.00
50790;BME280;37287;47.554;7.844;2023-02-04T05:26:42;99424.16;;;4.52;100.00
50790;BME280;37287;47.554;7.844;2023-02-04T05:29:09;99421.00;;;4.50;100.00
50790;BME280;37287;47.554;7.844;2023-02-04T05:31:36;99427.75;;;4.47;100.00
50790;BME280;37287;47.554;7.844;2023-02-04T05:34:03;99422.69;;;4.46;100.00
50790;BME280;37287;47.554;7.844;2023-02-04T05:36:31;99419.47;;;4.44;100.00
50790;BME280;37287;47.554;7.844;2023-02-04T05:38:59;99420.59;;;4.43;100.00
50790;BME280;37287;47.554;7.844;2023-02-04T05:41:26;99427.34;;;4.40;100.00
50790;BME280;37287;47.554;7.844;2023-02-04T05:43:54;99423.88;;;4.40;100.00
50790;BME280;37287;47.554;7.844;2023-02-04T05:46:21;99426.03;;;4.38;100.00
50790;BME280;37287;47.554;7.844;2023-02-04T05:48:49;99430.63;;;4.37;100.00
50790;BME280;37287;47.554;7.844;2023-02-04T05:51:25;99436.75;;;4.38;100.00
50790;BME280;37287;47.554;7.844;2023-02-04T05:53:51;99439.16;;;4.39;100.00
50790;BME280;37287;47.554;7.844;2023-02-04T05:56:18;99446.09;;;4.40;100.00
50790;BME280;37287;47.554;7.844;2023-02-04T05:58:48;99457.63;;;4.41;100.00
50790;BME280;37287;47.554;7.844;2023-02-04T06:01:15;99451.47;;;4.40;100.00
50790;BME280;37287;47.554;7.844;2023-02-04T06:03:41;99461.13;;;4.41;100.00
50790;BME280;37287;47.554;7.844;2023-02-04T06:06:10;99466.19;;;4.43;100.00
50790;BME280;37287;47.554;7.844;2023-02-04T06:08:36;99461.59;;;4.43;100.00
50790;BME280;37287;47.554;7.844;2023-02-04T06:11:03;99463.19;;;4.44;100.00
50790;BME280;37287;47.554;7.844;2023-02-04T06:13:31;99460.53;;;4.44;100.00
50790;BME280;37287;47.554;7.844;2023-02-04T06:15:58;99453.25;;;4.45;100.00
50790;BME280;37287;47.554;7.844;2023-02-04T06:18:24;99454.34;;;4.44;100.00
50790;BME280;37287;47.554;7.844;2023-02-04T06:20:53;99450.88;;;4.43;100.00
50790;BME280;37287;47.554;7.844;2023-02-04T06:23:21;99442.03;;;4.43;100.00
50790;BME280;37287;47.554;7.844;2023-02-04T06:25:48;99434.31;;;4.41;100.00
50790;BME280;37287;47.554;7.844;2023-02-04T06:28:15;99436.16;;;4.41;100.00
50790;BME280;37287;47.554;7.844;2023-02-04T06:30:42;99432.19;;;4.38;100.00
50790;BME280;37287;47.554;7.844;2023-02-04T06:33:11;99440.81;;;4.35;100.00
50790;BME280;37287;47.554;7.844;2023-02-04T06:35:38;99429.91;;;4.32;100.00
50790;BME280;37287;47.554;7.844;2023-02-04T06:38:04;99433.69;;;4.30;100.00
50790;BME280;37287;47.554;7.844;2023-02-04T06:40:30;99439.03;;;4.30;100.00
50790;BME280;37287;47.554;7.844;2023-02-04T06:42:59;99440.63;;;4.32;100.00
50790;BME280;37287;47.554;7.844;2023-02-04T06:45:28;99445.19;;;4.31;100.00
50790;BME280;37287;47.554;7.844;2023-02-04T06:47:55;99451.06;;;4.33;100.00
50790;BME280;37287;47.554;7.844;2023-02-04T06:50:23;99452.38;;;4.36;100.00
50790;BME280;37287;47.554;7.844;2023-02-04T06:52:50;99453.16;;;4.36;100.00
50790;BME280;37287;47.554;7.844;2023-02-04T06:55:16;99454.44;;;4.39;100.00
50790;BME280;37287;47.554;7.844;2023-02-04T06:57:45;99454.44;;;4.39;100.00
50790;BME280;37287;47.554;7.844;2023-02-04T07:00:12;99456.06;;;4.40;100.00
50790;BME280;37287;47.554;7.844;2023-02-04T07:02:39;99457.31;;;4.42;100.00
50790;BME280;37287;47.554;7.844;2023-02-04T07:05:05;99458.13;;;4.43;100.00
50790;BME280;37287;47.554;7.844;2023-02-04T07:07:32;99450.88;;;4.43;100.00
50790;BME280;37287;47.554;7.844;2023-02-04T07:09:59;99460.22;;;4.46;100.00
50790;BME280;37287;47.554;7.844;2023-02-04T07:12:26;99474.13;;;4.48;100.00
50790;BME280;37287;47.554;7.844;2023-02-04T07:14:52;99469.56;;;4.48;100.00
50790;BME280;37287;47.554;7.844;2023-02-04T07:17:19;99470.06;;;4.51;100.00
50790;BME280;37287;47.554;7.844;2023-02-04T07:19:47;99461.72;;;4.52;100.00
50790;BME280;37287;47.554;7.844;2023-02-04T07:22:14;99464.91;;;4.54;100.00
50790;BME280;37287;47.554;7.844;2023-02-04T07:24:40;99471.56;;;4.57;100.00
50790;BME280;37287;47.554;7.844;2023-02-04T07:27:13;99474.25;;;4.57;100.00
50790;BME280;37287;47.554;7.844;2023-02-04T07:29:40;99468.59;;;4.58;100.00
50790;BME280;37287;47.554;7.844;2023-02-04T07:32:06;99469.91;;;4.61;100.00
50790;BME280;37287;47.554;7.844;2023-02-04T07:34:33;99477.34;;;4.64;100.00
50790;BME280;37287;47.554;7.844;2023-02-04T07:37:00;99478.13;;;4.64;100.00
50790;BME280;37287;47.554;7.844;2023-02-04T07:39:27;99478.13;;;4.64;100.00
50790;BME280;37287;47.554;7.844;2023-02-04T07:41:53;99483.00;;;4.62;100.00
50790;BME280;37287;47.554;7.844;2023-02-04T07:44:21;99480.88;;;4.59;100.00
50790;BME280;37287;47.554;7.844;2023-02-04T07:46:50;99479.31;;;4.58;100.00
50790;BME280;37287;47.554;7.844;2023-02-04T07:49:17;99475.53;;;4.59;100.00
50790;BME280;37287;47.554;7.844;2023-02-04T07:51:45;99487.56;;;4.62;100.00
50790;BME280;37287;47.554;7.844;2023-02-04T07:54:11;99481.91;;;4.63;100.00
50790;BME280;37287;47.554;7.844;2023-02-04T07:56:38;99489.66;;;4.65;100.00
50790;BME280;37287;47.554;7.844;2023-02-04T07:59:05;99488.84;;;4.64;100.00
50790;BME280;37287;47.554;7.844;2023-02-04T08:01:31;99489.66;;;4.65;100.00
50790;BME280;37287;47.554;7.844;2023-02-04T08:03:58;99485.88;;;4.66;100.00
50790;BME280;37287;47.554;7.844;2023-02-04T08:06:25;99489.88;;;4.69;100.00
50790;BME280;37287;47.554;7.844;2023-02-04T08:08:51;99485.50;;;4.73;100.00
50790;BME280;37287;47.554;7.844;2023-02-04T08:11:23;99482.50;;;4.74;100.00
50790;BME280;37287;47.554;7.844;2023-02-04T08:13:54;99478.75;;;4.75;100.00
50790;BME280;37287;47.554;7.844;2023-02-04T08:16:20;99484.91;;;4.76;100.00
50790;BME280;37287;47.554;7.844;2023-02-04T08:18:47;99478.16;;;4.78;100.00
50790;BME280;37287;47.554;7.844;2023-02-04T08:21:15;99483.50;;;4.78;100.00
50790;BME280;37287;47.554;7.844;2023-02-04T08:23:44;99480.53;;;4.80;100.00
50790;BME280;37287;47.554;7.844;2023-02-04T08:26:11;99484.50;;;4.82;100.00
50790;BME280;37287;47.554;7.844;2023-02-04T08:28:39;99484.22;;;4.84;100.00
50790;BME280;37287;47.554;7.844;2023-02-04T08:31:06;99478.06;;;4.84;100.00
50790;BME280;37287;47.554;7.844;2023-02-04T08:33:32;99489.28;;;4.86;100.00
50790;BME280;37287;47.554;7.844;2023-02-04T08:36:01;99494.88;;;4.89;100.00
50790;BME280;37287;47.554;7.844;2023-02-04T08:38:27;99496.94;;;4.92;100.00
50790;BME280;37287;47.554;7.844;2023-02-04T08:40:54;99488.59;;;4.94;100.00
50790;BME280;37287;47.554;7.844;2023-02-04T08:43:21;99491.47;;;4.97;100.00
50790;BME280;37287;47.554;7.844;2023-02-04T08:45:47;99496.81;;;4.97;100.00
50790;BME280;37287;47.554;7.844;2023-02-04T08:48:15;99493.56;;;5.01;100.00
50790;BME280;37287;47.554;7.844;2023-02-04T08:50:45;99504.00;;;5.02;100.00
50790;BME280;37287;47.554;7.844;2023-02-04T08:53:12;99501.03;;;5.04;100.00
50790;BME280;37287;47.554;7.844;2023-02-04T08:55:38;99503.09;;;5.07;100.00
50790;BME280;37287;47.554;7.844;2023-02-04T08:58:05;99500.13;;;5.08;100.00
50790;BME280;37287;47.554;7.844;2023-02-04T09:00:33;99512.94;;;5.11;100.00
50790;BME280;37287;47.554;7.844;2023-02-04T09:03:00;99505.09;;;5.15;100.00
50790;BME280;37287;47.554;7.844;2023-02-04T09:05:27;99508.78;;;5.19;100.00
50790;BME280;37287;47.554;7.844;2023-02-04T09:07:53;99512.47;;;5.23;100.00
50790;BME280;37287;47.554;7.844;2023-02-04T09:10:20;99513.94;;;5.29;100.00
50790;BME280;37287;47.554;7.844;2023-02-04T09:12:48;99518.41;;;5.34;100.00
50790;BME280;37287;47.554;7.844;2023-02-04T09:15:15;99513.25;;;5.38;100.00
50790;BME280;37287;47.554;7.844;2023-02-04T09:17:42;99511.72;;;5.45;100.00
50790;BME280;37287;47.554;7.844;2023-02-04T09:20:09;99514.31;;;5.50;100.00
50790;BME280;37287;47.554;7.844;2023-02-04T09:22:36;99512.31;;;5.56;100.00
50790;BME280;37287;47.554;7.844;2023-02-04T09:25:03;99518.06;;;5.63;100.00
50790;BME280;37287;47.554;7.844;2023-02-04T09:27:36;99519.84;;;5.68;100.00
50790;BME280;37287;47.554;7.844;2023-02-04T09:30:03;99515.44;;;5.72;100.00
50790;BME280;37287;47.554;7.844;2023-02-04T09:32:30;99519.84;;;5.68;100.00
50790;BME280;37287;47.554;7.844;2023-02-04T09:34:58;99522.72;;;5.72;100.00
50790;BME280;37287;47.554;7.844;2023-02-04T09:37:25;99518.81;;;5.78;100.00
50790;BME280;37287;47.554;7.844;2023-02-04T09:39:54;99518.03;;;5.77;100.00
50790;BME280;37287;47.554;7.844;2023-02-04T09:42:23;99525.97;;;5.82;100.00
50790;BME280;37287;47.554;7.844;2023-02-04T09:44:51;99533.16;;;5.87;100.00
50790;BME280;37287;47.554;7.844;2023-02-04T09:47:21;99529.34;;;5.88;100.00
50790;BME280;37287;47.554;7.844;2023-02-04T09:49:51;99529.34;;;5.88;100.00
50790;BME280;37287;47.554;7.844;2023-02-04T09:52:18;99527.63;;;5.92;100.00
50790;BME280;37287;47.554;7.844;2023-02-04T09:54:44;99533.84;;;5.93;100.00
50790;BME280;37287;47.554;7.844;2023-02-04T09:57:14;99534.00;;;5.96;100.00
50790;BME280;37287;47.554;7.844;2023-02-04T09:59:43;99535.31;;;5.99;100.00
50790;BME280;37287;47.554;7.844;2023-02-04T10:02:20;99541.78;;;5.98;100.00
50790;BME280;37287;47.554;7.844;2023-02-04T10:04:51;99548.47;;;6.00;100.00
50790;BME280;37287;47.554;7.844;2023-02-04T10:07:20;99550.06;;;6.01;100.00
50790;BME280;37287;47.554;7.844;2023-02-04T10:09:51;99551.66;;;6.02;100.00
50790;BME280;37287;47.554;7.844;2023-02-04T10:12:19;99554.03;;;6.04;100.00
50790;BME280;37287;47.554;7.844;2023-02-04T10:14:45;99548.53;;;6.09;100.00
50790;BME280;37287;47.554;7.844;2023-02-04T10:17:15;99550.63;;;6.12;100.00
50790;BME280;37287;47.554;7.844;2023-02-04T10:19:45;99550.81;;;6.16;100.00
50790;BME280;37287;47.554;7.844;2023-02-04T10:22:16;99554.00;;;6.18;100.00
50790;BME280;37287;47.554;7.844;2023-02-04T10:24:44;99558.56;;;6.17;100.00
50790;BME280;37287;47.554;7.844;2023-02-04T10:27:13;99564.75;;;6.18;100.00
50790;BME280;37287;47.554;7.844;2023-02-04T10:29:54;99560.63;;;6.20;100.00
50790;BME280;37287;47.554;7.844;2023-02-04T10:32:30;99564.13;;;6.21;100.00
50790;BME280;37287;47.554;7.844;2023-02-04T10:34:59;99561.94;;;6.23;100.00
50790;BME280;37287;47.554;7.844;2023-02-04T10:37:27;99549.59;;;6.22;100.00
50790;BME280;37287;47.554;7.844;2023-02-04T10:39:55;99544.22;;;6.22;100.00
50790;BME280;37287;47.554;7.844;2023-02-04T10:42:26;99543.59;;;6.25;100.00
50790;BME280;37287;47.554;7.844;2023-02-04T10:44:55;99550.28;;;6.28;100.00
50790;BME280;37287;47.554;7.844;2023-02-04T10:47:27;99544.91;;;6.28;100.00
50790;BME280;37287;47.554;7.844;2023-02-04T10:50:04;99554.06;;;6.27;100.00
50790;BME280;37287;47.554;7.844;2023-02-04T10:52:41;99544.09;;;6.27;100.00
50790;BME280;37287;47.554;7.844;2023-02-04T10:55:14;99538.09;;;6.30;100.00
50790;BME280;37287;47.554;7.844;2023-02-04T10:57:43;99548.25;;;6.33;100.00
50790;BME280;37287;47.554;7.844;2023-02-04T11:00:21;99543.97;;;6.32;100.00
50790;BME280;37287;47.554;7.844;2023-02-04T11:03:03;99544.75;;;6.33;100.00
50790;BME280;37287;47.554;7.844;2023-02-04T11:05:34;99541.28;;;6.32;100.00
50790;BME280;37287;47.554;7.844;2023-02-04T11:08:21;99536.38;;;6.34;100.00
50790;BME280;37287;47.554;7.844;2023-02-04T11:10:59;99539.25;;;6.38;100.00
50790;BME280;37287;47.554;7.844;2023-02-04T11:13:45;99539.56;;;6.36;100.00
50790;BME280;37287;47.554;7.844;2023-02-04T11:16:26;99536.88;;;6.36;100.00
50790;BME280;37287;47.554;7.844;2023-02-04T11:18:59;99533.22;;;6.32;100.00
50790;BME280;37287;47.554;7.844;2023-02-04T11:26:43;99543.00;;;6.28;100.00
50790;BME280;37287;47.554;7.844;2023-02-04T11:31:58;99542.22;;;6.28;100.00
50790;BME280;37287;47.554;7.844;2023-02-04T11:34:29;99543.97;;;6.32;100.00
50790;BME280;37287;47.554;7.844;2023-02-04T11:37:09;99543.47;;;6.30;100.00
50790;BME280;37287;47.554;7.844;2023-02-04T11:39:42;99547.63;;;6.36;100.00
50790;BME280;37287;47.554;7.844;2023-02-04T11:42:45;99540.78;;;6.30;100.00
50790;BME280;37287;47.554;7.844;2023-02-04T11:45:19;99527.47;;;6.25;100.00
50790;BME280;37287;47.554;7.844;2023-02-04T11:47:46;99539.00;;;6.26;100.00
50790;BME280;37287;47.554;7.844;2023-02-04T11:52:49;99546.00;;;6.27;100.00
50790;BME280;37287;47.554;7.844;2023-02-04T11:55:16;99533.84;;;6.29;100.00
50790;BME280;37287;47.554;7.844;2023-02-04T11:57:44;99539.56;;;6.36;100.00
50790;BME280;37287;47.554;7.844;2023-02-04T12:00:17;99539.56;;;6.36;100.00
50790;BME280;37287;47.554;7.844;2023-02-04T12:02:49;99537.97;;;6.35;100.00
50790;BME280;37287;47.554;7.844;2023-02-04T12:05:18;99537.34;;;6.39;100.00
50790;BME280;37287;47.554;7.844;2023-02-04T12:07:47;99532.66;;;6.44;100.00
50790;BME280;37287;47.554;7.844;2023-02-04T12:12:54;99529.25;;;6.61;100.00
50790;BME280;37287;47.554;7.844;2023-02-04T12:15:34;99523.72;;;6.58;100.00
50790;BME280;37287;47.554;7.844;2023-02-04T12:18:06;99532.63;;;6.67;100.00
50790;BME280;37287;47.554;7.844;2023-02-04T12:20:33;99524.59;;;6.76;100.00
50790;BME280;37287;47.554;7.844;2023-02-04T12:23:00;99531.13;;;6.83;100.00
50790;BME280;37287;47.554;7.844;2023-02-04T12:25:33;99538.81;;;6.99;100.00
50790;BME280;37287;47.554;7.844;2023-02-04T12:28:02;99539.16;;;7.06;100.00
50790;BME280;37287;47.554;7.844;2023-02-04T12:30:29;99536.97;;;7.17;100.00
50790;BME280;37287;47.554;7.844;2023-02-04T12:32:55;99540.78;;;7.16;100.00
50790;BME280;37287;47.554;7.844;2023-02-04T12:35:22;99538.22;;;7.11;100.00
50790;BME280;37287;47.554;7.844;2023-02-04T12:37:50;99536.34;;;7.20;100.00
50790;BME280;37287;47.554;7.844;2023-02-04T12:40:23;99535.84;;;7.18;100.00
50790;BME280;37287;47.554;7.844;2023-02-04T12:42:50;99541.53;;;7.08;100.00
50790;BME280;37287;47.554;7.844;2023-02-04T12:45:17;99535.50;;;7.02;100.00
50790;BME280;37287;47.554;7.844;2023-02-04T12:47:43;99538.16;;;6.93;100.00
50790;BME280;37287;47.554;7.844;2023-02-04T12:50:12;99536.56;;;6.92;100.00
50790;BME280;37287;47.554;7.844;2023-02-04T12:52:39;99537.06;;;6.94;100.00
50790;BME280;37287;47.554;7.844;2023-02-04T12:55:08;99532.47;;;7.03;100.00
50790;BME280;37287;47.554;7.844;2023-02-04T12:57:34;99528.81;;;6.99;100.00
50790;BME280;37287;47.554;7.844;2023-02-04T13:00:01;99535.31;;;6.98;100.00
50790;BME280;37287;47.554;7.844;2023-02-04T13:02:29;99534.50;;;6.98;100.00
50790;BME280;37287;47.554;7.844;2023-02-04T13:04:56;99535.09;;;6.86;100.00
50790;BME280;37287;47.554;7.844;2023-02-04T13:07:23;99533.97;;;6.87;100.00
50790;BME280;37287;47.554;7.844;2023-02-04T13:09:51;99536.31;;;6.80;100.00
50790;BME280;37287;47.554;7.844;2023-02-04T13:12:18;99539.53;;;6.82;100.00
50790;BME280;37287;47.554;7.844;2023-02-04T13:14:46;99538.59;;;6.86;100.00
50790;BME280;37287;47.554;7.844;2023-02-04T13:17:22;99538.59;;;6.86;100.00
50790;BME280;37287;47.554;7.844;2023-02-04T13:19:48;99541.91;;;6.83;100.00
50790;BME280;37287;47.554;7.844;2023-02-04T13:22:15;99539.03;;;6.80;100.00
50790;BME280;37287;47.554;7.844;2023-02-04T13:24:42;99544.09;;;6.81;100.00
50790;BME280;37287;47.554;7.844;2023-02-04T13:27:08;99542.84;;;6.79;100.00